createdAt,value
2023-01-12T00:02:18.691Z,96673.00
2023-01-12T00:04:45.227Z,96646.00
2023-01-12T00:07:12.769Z,96566.31
2023-01-12T00:09:39.237Z,96490.09
2023-01-12T00:12:07.150Z,96442.38
2023-01-12T00:14:36.917Z,96394.91
2023-01-12T00:17:03.938Z,96298.97
2023-01-12T00:19:31.428Z,96220.75
2023-01-12T00:22:00.383Z,96134.41
2023-01-12T00:24:28.074Z,96087.00
2023-01-12T00:26:54.736Z,96057.66
2023-01-12T00:29:21.304Z,96043.53
2023-01-12T00:31:47.821Z,96066.72
2023-01-12T00:34:14.286Z,96089.19
2023-01-12T00:36:40.902Z,96079.50
2023-01-12T00:39:07.367Z,96090.84
2023-01-12T00:41:52.550Z,96086.59
2023-01-12T00:44:37.263Z,96105.38
2023-01-12T00:47:05.980Z,96135.53
2023-01-12T00:49:32.355Z,96164.03
2023-01-12T00:51:58.711Z,96140.72
2023-01-12T00:54:25.308Z,96133.88
2023-01-12T00:56:51.715Z,96128.66
2023-01-12T00:59:18.067Z,96100.75
2023-01-12T01:01:44.545Z,96039.34
2023-01-12T01:04:11.009Z,96007.53
2023-01-12T01:06:38.779Z,95974.63
2023-01-12T01:09:05.380Z,95939.28
2023-01-12T01:11:31.990Z,95910.78
2023-01-12T01:13:59.171Z,95908.88
2023-01-12T01:16:25.691Z,95915.47
2023-01-12T01:18:52.240Z,95929.41
2023-01-12T01:21:21.532Z,95935.19
2023-01-12T01:23:48.168Z,95930.91
2023-01-12T01:26:16.521Z,95931.88
2023-01-12T01:28:43.276Z,95917.09
2023-01-12T01:31:10.704Z,95906.94
2023-01-12T01:33:37.460Z,95878.31
2023-01-12T01:36:04.019Z,95855.16
2023-01-12T01:38:30.688Z,95837.09
2023-01-12T01:40:57.079Z,95824.19
2023-01-12T01:43:25.029Z,95792.28
2023-01-12T01:46:00.499Z,95786.13
2023-01-12T01:48:27.457Z,95774.03
2023-01-12T01:50:57.567Z,95781.06
2023-01-12T01:53:24.966Z,95769.13
2023-01-12T01:55:53.401Z,95774.34
2023-01-12T01:58:26.360Z,95762.25
2023-01-12T02:00:53.189Z,95747.09
2023-01-12T02:03:19.908Z,95735.16
2023-01-12T02:05:47.171Z,95713.78
2023-01-12T02:08:22.460Z,95733.38
2023-01-12T02:10:49.252Z,95731.59
2023-01-12T02:13:34.130Z,95716.50
2023-01-12T02:16:40.863Z,95698.97
2023-01-12T02:19:24.964Z,95638.16
2023-01-12T02:21:51.310Z,95591.28
2023-01-12T02:24:45.280Z,95534.31
2023-01-12T02:27:39.714Z,95506.34
2023-01-12T02:30:18.545Z,95459.47
2023-01-12T02:32:54.689Z,95397.31
2023-01-12T02:35:43.366Z,95354.06
2023-01-12T02:38:31.193Z,95335.66
2023-01-12T02:41:07.841Z,95299.75
2023-01-12T02:43:35.123Z,95243.75
2023-01-12T02:46:14.380Z,95184.88
2023-01-12T02:48:43.942Z,95142.56
2023-01-12T02:51:13.833Z,95085.31
2023-01-12T02:53:59.846Z,95050.50
2023-01-12T02:56:30.555Z,95032.78
2023-01-12T02:58:58.339Z,95039.13
2023-01-12T03:01:25.540Z,95059.97
2023-01-12T03:03:52.117Z,95068.44
2023-01-12T03:06:18.554Z,95104.56
2023-01-12T03:08:45.309Z,95166.44
2023-01-12T03:11:18.732Z,95225.34
2023-01-12T03:13:54.157Z,95277.13
2023-01-12T03:16:25.873Z,95346.66
2023-01-12T03:18:55.733Z,95421.69
2023-01-12T03:21:27.033Z,95468.56
2023-01-12T03:24:14.485Z,95505.59
2023-01-12T03:26:43.090Z,95544.47
2023-01-12T03:29:30.553Z,95552.97
2023-01-12T03:31:57.244Z,95580.06
2023-01-12T03:34:23.599Z,95595.69
2023-01-12T03:36:53.176Z,95612.00
2023-01-12T03:39:42.407Z,95589.38
2023-01-12T03:42:13.397Z,95572.94
2023-01-12T03:45:15.251Z,95547.88
2023-01-12T03:47:41.976Z,95527.97
2023-01-12T03:50:27.210Z,95515.91
2023-01-12T03:52:54.394Z,95526.06
2023-01-12T03:55:23.083Z,95512.34
2023-01-12T03:57:49.539Z,95528.66
2023-01-12T04:00:16.180Z,95555.22
2023-01-12T04:02:43.469Z,95573.47
2023-01-12T04:05:09.826Z,95596.75
2023-01-12T04:07:36.398Z,95590.72
2023-01-12T04:10:02.817Z,95599.22
2023-01-12T04:12:29.451Z,95612.13
2023-01-12T04:14:55.791Z,95622.53
2023-01-12T04:17:25.323Z,95618.97
2023-01-12T04:19:51.987Z,95614.72
2023-01-12T04:22:37.251Z,95589.59
2023-01-12T04:25:04.211Z,95571.38
2023-01-12T04:27:30.821Z,95547.78
2023-01-12T04:29:57.201Z,95513.09
2023-01-12T04:32:23.904Z,95485.41
2023-01-12T04:34:50.343Z,95448.91
2023-01-12T04:37:16.981Z,95433.28
2023-01-12T04:39:43.323Z,95407.22
2023-01-12T04:42:29.851Z,95383.97
2023-01-12T04:44:56.222Z,95338.03
2023-01-12T04:47:22.827Z,95292.09
2023-01-12T04:49:49.212Z,95240.84
2023-01-12T04:52:15.865Z,95182.84
2023-01-12T04:54:42.248Z,95142.16
2023-01-12T04:57:08.623Z,95099.66
2023-01-12T04:59:34.963Z,95067.59
2023-01-12T05:02:01.352Z,95058.78
2023-01-12T05:04:27.885Z,95038.13
2023-01-12T05:06:54.490Z,95025.91
2023-01-12T05:09:39.459Z,95010.28
2023-01-12T05:12:05.974Z,94991.38
2023-01-12T05:14:32.360Z,94965.34
2023-01-12T05:16:59.801Z,94956.88
2023-01-12T05:19:26.141Z,94953.00
2023-01-12T05:21:52.505Z,94944.19
2023-01-12T05:24:18.943Z,94938.97
2023-01-12T05:26:45.334Z,94942.56
2023-01-12T05:29:11.885Z,94955.25
2023-01-12T05:31:38.519Z,94992.38
2023-01-12T05:34:04.844Z,95021.69
2023-01-12T05:36:31.330Z,95026.88
2023-01-12T05:38:57.690Z,95018.28
2023-01-12T05:41:24.270Z,95034.38
2023-01-12T05:43:50.728Z,95064.66
2023-01-12T05:46:22.974Z,95093.66
2023-01-12T05:48:49.803Z,95104.41
2023-01-12T05:51:16.782Z,95094.94
2023-01-12T05:53:43.405Z,95080.31
2023-01-12T05:56:30.889Z,95056.84
2023-01-12T05:58:58.909Z,95044.66
2023-01-12T06:01:25.524Z,95034.22
2023-01-12T06:03:53.045Z,95021.38
2023-01-12T06:06:20.053Z,95019.41
2023-01-12T06:08:46.710Z,95033.72
2023-01-12T06:11:33.138Z,95090.44
2023-01-12T06:14:00.149Z,95124.66
2023-01-12T06:16:27.026Z,95137.00
2023-01-12T06:18:53.401Z,95163.72
2023-01-12T06:21:19.779Z,95177.41
2023-01-12T06:23:46.144Z,95186.84
2023-01-12T06:26:12.550Z,95211.97
2023-01-12T06:28:39.479Z,95238.72
2023-01-12T06:31:07.270Z,95283.66
2023-01-12T06:33:33.775Z,95318.22
2023-01-12T06:36:00.202Z,95328.66
2023-01-12T06:38:27.890Z,95349.50
2023-01-12T06:40:57.353Z,95346.91
2023-01-12T06:43:24.502Z,95331.41
2023-01-12T06:45:53.218Z,95328.66
2023-01-12T06:48:22.426Z,95320.50
2023-01-12T06:50:48.769Z,95331.13
2023-01-12T06:53:15.116Z,95326.06
2023-01-12T06:55:48.409Z,95334.88
2023-01-12T06:58:14.774Z,95334.06
2023-01-12T07:00:41.118Z,95347.75
2023-01-12T07:03:07.671Z,95352.66
2023-01-12T07:05:34.052Z,95359.00
2023-01-12T07:08:00.484Z,95359.97
2023-01-12T07:10:27.155Z,95364.22
2023-01-12T07:12:53.642Z,95357.34
2023-01-12T07:15:19.992Z,95369.44
2023-01-12T07:17:46.404Z,95377.59
2023-01-12T07:20:12.766Z,95363.59
2023-01-12T07:22:39.410Z,95341.09
2023-01-12T07:25:06.442Z,95332.59
2023-01-12T07:27:32.791Z,95327.91
2023-01-12T07:29:59.187Z,95318.63
2023-01-12T07:32:27.198Z,95335.88
2023-01-12T07:34:53.554Z,95334.25
2023-01-12T07:37:20.384Z,95349.72
2023-01-12T07:39:46.924Z,95401.16
2023-01-12T07:42:25.566Z,95436.53
2023-01-12T07:44:52.075Z,95471.91
2023-01-12T07:47:18.411Z,95502.88
2023-01-12T07:49:44.818Z,95532.25
2023-01-12T07:52:12.445Z,95547.09
2023-01-12T07:54:38.936Z,95580.56
2023-01-12T07:57:08.312Z,95634.56
2023-01-12T07:59:34.752Z,95699.34
2023-01-12T08:02:01.216Z,95724.63
2023-01-12T08:04:27.574Z,95711.03
2023-01-12T08:06:53.944Z,95679.91
2023-01-12T08:09:20.301Z,95656.78
2023-01-12T08:11:46.658Z,95645.22
2023-01-12T08:14:23.200Z,95591.41
2023-01-12T08:16:49.721Z,95523.88
2023-01-12T08:19:21.882Z,95442.66
2023-01-12T08:21:52.595Z,95315.63
2023-01-12T08:24:23.287Z,95217.97
2023-01-12T08:26:51.340Z,95128.81
2023-01-12T08:29:29.722Z,95096.38
2023-01-12T08:32:02.644Z,95056.59
2023-01-12T08:34:31.669Z,95023.34
2023-01-12T08:36:58.339Z,95001.66
2023-01-12T08:39:24.921Z,95011.94
2023-01-12T08:41:51.384Z,95045.53
2023-01-12T08:44:17.807Z,95058.72
2023-01-12T08:46:52.088Z,95021.69
2023-01-12T08:49:24.545Z,95033.44
2023-01-12T08:51:51.220Z,95072.25
2023-01-12T08:54:18.120Z,95126.69
2023-01-12T08:56:44.532Z,95145.91
2023-01-12T08:59:12.188Z,95174.44
2023-01-12T09:01:38.826Z,95148.19
2023-01-12T09:04:05.738Z,95113.66
2023-01-12T09:06:36.385Z,95118.53
2023-01-12T09:09:08.743Z,95141.34
2023-01-12T09:11:35.539Z,95206.56
2023-01-12T09:14:01.942Z,95277.63
2023-01-12T09:16:29.590Z,95334.06
2023-01-12T09:18:56.552Z,95355.59
2023-01-12T09:21:24.472Z,95398.94
2023-01-12T09:23:51.294Z,95432.56
2023-01-12T09:26:19.584Z,95471.69
2023-01-12T09:28:46.027Z,95476.63
2023-01-12T09:31:14.380Z,95486.22
2023-01-12T09:33:40.923Z,95515.56
2023-01-12T09:36:12.064Z,95523.75
2023-01-12T09:38:39.457Z,95550.69
2023-01-12T09:41:47.645Z,95560.81
2023-01-12T09:44:49.982Z,95610.75
2023-01-12T09:47:39.707Z,95593.47
2023-01-12T09:50:10.053Z,95569.66
2023-01-12T09:52:46.052Z,95572.25
2023-01-12T09:55:20.950Z,95556.59
2023-01-12T09:58:00.461Z,95496.44
2023-01-12T10:00:28.216Z,95452.91
2023-01-12T10:03:05.782Z,95471.34
2023-01-12T10:05:46.403Z,95514.94
2023-01-12T10:08:17.075Z,95570.75
2023-01-12T10:10:59.576Z,95632.16
2023-01-12T10:13:28.495Z,95650.78
2023-01-12T10:15:58.231Z,95704.66
2023-01-12T10:18:47.714Z,95718.38
2023-01-12T10:21:14.143Z,95712.19
2023-01-12T10:23:40.496Z,95716.13
2023-01-12T10:26:16.270Z,95757.00
2023-01-12T10:28:43.110Z,95781.03
2023-01-12T10:31:12.767Z,95768.78
2023-01-12T10:33:41.190Z,95771.69
2023-01-12T10:36:18.046Z,95763.72
2023-01-12T10:38:59.496Z,95770.75
2023-01-12T10:41:27.035Z,95767.16
2023-01-12T10:43:56.395Z,95718.50
2023-01-12T10:46:24.277Z,95668.06
2023-01-12T10:48:51.863Z,95657.44
2023-01-12T10:51:20.693Z,95653.03
2023-01-12T10:54:17.856Z,95657.13
2023-01-12T10:56:56.065Z,95639.50
2023-01-12T10:59:24.847Z,95638.38
2023-01-12T11:02:06.945Z,95613.09
2023-01-12T11:04:47.740Z,95588.25
2023-01-12T11:07:15.044Z,95557.75
2023-01-12T11:09:42.336Z,95548.44
2023-01-12T11:12:24.712Z,95505.00
2023-01-12T11:14:58.143Z,95489.31
2023-01-12T11:17:24.498Z,95504.34
2023-01-12T11:19:50.869Z,95530.47
2023-01-12T11:22:36.089Z,95505.34
2023-01-12T11:25:05.557Z,95512.34
2023-01-12T11:27:35.798Z,95489.34
2023-01-12T11:30:36.494Z,95497.19
2023-01-12T11:33:23.008Z,95444.59
2023-01-12T11:36:14.722Z,95404.41
2023-01-12T11:39:03.861Z,95393.66
2023-01-12T11:41:37.460Z,95362.28
2023-01-12T11:44:21.128Z,95341.38
2023-01-12T11:46:56.835Z,95264.97
2023-01-12T11:49:24.555Z,95239.16
2023-01-12T11:51:53.473Z,95192.13
2023-01-12T11:54:20.075Z,95181.69
2023-01-12T11:57:14.813Z,95161.94
2023-01-12T11:59:59.484Z,95064.16
2023-01-12T12:02:37.089Z,94961.97
2023-01-12T12:05:22.387Z,94896.06
2023-01-12T12:08:07.635Z,94842.53
2023-01-12T12:10:46.350Z,94810.84
2023-01-12T12:13:30.549Z,94824.88
2023-01-12T12:16:28.163Z,94841.84
2023-01-12T12:19:29.620Z,94863.19
2023-01-12T12:22:07.377Z,94869.22
2023-01-12T12:24:36.991Z,94911.03
2023-01-12T12:27:21.652Z,94889.31
2023-01-12T12:29:57.241Z,94863.84
2023-01-12T12:32:27.083Z,94849.34
2023-01-12T12:35:31.088Z,94832.66
2023-01-12T12:38:06.464Z,94823.66
2023-01-12T12:41:10.574Z,94819.88
2023-01-12T12:43:55.374Z,94833.59
2023-01-12T12:46:43.661Z,94840.91
2023-01-12T12:49:15.787Z,94841.72
2023-01-12T12:51:42.191Z,94820.00
2023-01-12T12:54:13.252Z,94797.94
2023-01-12T12:56:39.624Z,94756.13
2023-01-12T12:59:06.114Z,94746.94
2023-01-12T13:01:33.061Z,94721.63
2023-01-12T13:04:00.537Z,94682.63
2023-01-12T13:06:48.628Z,94634.78
2023-01-12T13:09:15.408Z,94580.56
2023-01-12T13:11:54.893Z,94543.97
2023-01-12T13:14:30.654Z,94513.41
2023-01-12T13:17:03.351Z,94478.84
2023-01-12T13:19:43.157Z,94437.03
2023-01-12T13:22:44.149Z,94371.09
2023-01-12T13:25:16.738Z,94329.94
2023-01-12T13:28:01.489Z,94266.59
2023-01-12T13:30:30.763Z,94199.69
2023-01-12T13:33:01.036Z,94155.28
2023-01-12T13:35:33.225Z,94144.81
2023-01-12T13:38:27.147Z,94135.78
2023-01-12T13:41:10.125Z,94144.44
2023-01-12T13:43:38.586Z,94173.78
2023-01-12T13:46:12.664Z,94173.78
2023-01-12T13:48:42.207Z,94175.38
2023-01-12T13:51:33.516Z,94157.72
2023-01-12T13:54:10.015Z,94175.00
2023-01-12T13:56:36.809Z,94168.00
2023-01-12T13:59:04.963Z,94160.94
2023-01-12T14:01:36.237Z,94148.69
2023-01-12T14:04:19.934Z,94139.44
2023-01-12T14:07:14.701Z,94128.00
2023-01-12T14:09:47.420Z,94101.66
2023-01-12T14:12:32.588Z,94088.59
2023-01-12T14:15:39.064Z,94075.34
2023-01-12T14:18:07.037Z,94078.94
2023-01-12T14:20:41.354Z,94057.06
2023-01-12T14:23:17.736Z,94038.78
2023-01-12T14:25:44.527Z,94014.63
2023-01-12T14:28:18.874Z,93976.06
2023-01-12T14:30:54.646Z,93947.34
2023-01-12T14:33:31.668Z,93905.13
2023-01-12T14:36:03.419Z,93869.16
2023-01-12T14:38:30.166Z,93841.44
2023-01-12T14:41:05.237Z,93792.38
2023-01-12T14:43:51.271Z,93757.41
2023-01-12T14:46:29.004Z,93708.75
2023-01-12T14:49:00.287Z,93646.06
2023-01-12T14:51:34.131Z,93587.56
2023-01-12T14:54:03.084Z,93522.69
2023-01-12T14:56:42.491Z,93431.47
2023-01-12T14:59:13.749Z,93362.16
2023-01-12T15:01:40.741Z,93282.78
2023-01-12T15:04:08.240Z,93204.41
2023-01-12T15:06:40.675Z,93118.63
2023-01-12T15:09:29.118Z,92996.34
2023-01-12T15:11:55.724Z,92875.06
2023-01-12T15:14:26.985Z,92759.56
2023-01-12T15:17:12.295Z,92652.19
2023-01-12T15:19:57.240Z,92522.44
2023-01-12T15:22:45.427Z,92424.72
2023-01-12T15:25:32.003Z,92308.25
2023-01-12T15:28:01.135Z,92252.63
2023-01-12T15:30:27.785Z,92192.81
2023-01-12T15:32:54.522Z,92162.53
2023-01-12T15:35:23.562Z,92092.06
2023-01-12T15:37:50.977Z,91962.00
2023-01-12T15:40:18.074Z,91871.22
2023-01-12T15:42:44.663Z,91792.91
2023-01-12T15:45:35.082Z,91678.06
2023-01-12T15:48:02.327Z,91558.00
2023-01-12T15:50:29.266Z,91456.22
2023-01-12T15:52:58.175Z,91396.19
2023-01-12T15:55:24.646Z,91338.75
2023-01-12T15:57:52.109Z,91217.91
2023-01-12T16:00:20.615Z,91171.72
2023-01-12T16:02:50.511Z,91147.19
2023-01-12T16:05:18.295Z,91114.81
2023-01-12T16:07:47.474Z,91103.88
2023-01-12T16:10:14.858Z,91096.53
2023-01-12T16:12:41.426Z,91084.03
2023-01-12T16:15:10.397Z,91061.03
2023-01-12T16:17:36.781Z,91061.81
2023-01-12T16:20:03.311Z,91045.38
2023-01-12T16:22:30.497Z,91033.38
2023-01-12T16:24:56.909Z,91034.44
2023-01-12T16:27:25.838Z,91000.50
2023-01-12T16:29:52.650Z,90980.16
2023-01-12T16:32:22.371Z,90945.19
2023-01-12T16:34:48.735Z,90893.50
2023-01-12T16:37:15.276Z,90832.97
2023-01-12T16:39:41.940Z,90786.25
2023-01-12T16:42:08.787Z,90745.56
2023-01-12T16:44:40.046Z,90714.53
2023-01-12T16:47:11.461Z,90663.88
2023-01-12T16:49:38.094Z,90612.75
2023-01-12T16:52:04.822Z,90576.22
2023-01-12T16:54:31.261Z,90538.16
2023-01-12T16:56:58.802Z,90484.91
2023-01-12T16:59:25.627Z,90402.19
2023-01-12T17:01:52.412Z,90378.19
2023-01-12T17:04:19.936Z,90322.66
2023-01-12T17:06:47.176Z,90293.97
2023-01-12T17:09:14.376Z,90257.44
2023-01-12T17:11:41.315Z,90240.72
2023-01-12T17:14:24.248Z,90212.00
2023-01-12T17:16:56.385Z,90185.13
2023-01-12T17:19:26.152Z,90171.34
2023-01-12T17:21:54.499Z,90151.72
2023-01-12T17:24:21.430Z,90141.00
2023-01-12T17:26:49.419Z,90126.38
2023-01-12T17:29:15.808Z,90126.88
2023-01-12T17:31:42.446Z,90125.81
2023-01-12T17:34:11.111Z,90131.50
2023-01-12T17:36:37.820Z,90140.88
2023-01-12T17:39:04.323Z,90158.06
2023-01-12T17:41:49.340Z,90187.25
2023-01-12T17:44:15.956Z,90255.09
2023-01-12T17:46:43.103Z,90308.06
2023-01-12T17:49:09.847Z,90367.81
2023-01-12T17:51:36.327Z,90434.13
2023-01-12T17:54:03.639Z,90507.97
2023-01-12T17:56:31.464Z,90560.94
2023-01-12T17:58:58.117Z,90632.47
2023-01-12T18:01:25.761Z,90695.59
2023-01-12T18:03:52.229Z,90757.16
2023-01-12T18:06:26.052Z,90835.47
2023-01-12T18:08:52.919Z,90905.44
2023-01-12T18:11:19.397Z,90982.69
2023-01-12T18:13:45.883Z,91073.53
2023-01-12T18:16:13.495Z,91157.81
2023-01-12T18:18:41.964Z,91251.53
2023-01-12T18:21:20.559Z,91327.25
2023-01-12T18:23:47.892Z,91396.16
2023-01-12T18:26:16.056Z,91446.28
2023-01-12T18:28:42.588Z,91485.19
2023-01-12T18:31:10.988Z,91521.47
2023-01-12T18:33:37.410Z,91554.88
2023-01-12T18:36:08.812Z,91600.81
2023-01-12T18:38:35.474Z,91610.72
2023-01-12T18:41:21.029Z,91622.22
2023-01-12T18:43:51.600Z,91625.31
2023-01-12T18:46:18.139Z,91616.72
2023-01-12T18:48:45.428Z,91610.72
2023-01-12T18:51:30.419Z,91599.75
2023-01-12T18:53:56.774Z,91577.03
2023-01-12T18:56:23.827Z,91561.13
2023-01-12T18:58:50.777Z,91543.41
2023-01-12T19:01:21.513Z,91547.03
2023-01-12T19:03:48.550Z,91545.47
2023-01-12T19:06:43.894Z,91543.91
2023-01-12T19:09:30.373Z,91529.81
2023-01-12T19:11:56.753Z,91521.72
2023-01-12T19:14:41.792Z,91528.25
2023-01-12T19:17:27.970Z,91519.88
2023-01-12T19:19:54.567Z,91509.44
2023-01-12T19:22:39.661Z,91498.47
2023-01-12T19:25:25.038Z,91500.56
2023-01-12T19:28:09.699Z,91498.22
2023-01-12T19:30:37.867Z,91479.16
2023-01-12T19:33:08.877Z,91477.34
2023-01-12T19:35:36.638Z,91479.16
2023-01-12T19:38:03.018Z,91485.44
2023-01-12T19:40:37.002Z,91483.31
2023-01-12T19:43:23.569Z,91459.31
2023-01-12T19:45:51.509Z,91426.97
2023-01-12T19:48:19.416Z,91416.00
2023-01-12T19:50:45.825Z,91399.56
2023-01-12T19:53:18.455Z,91361.72
2023-01-12T19:55:45.016Z,91336.13
2023-01-12T19:58:11.414Z,91293.59
2023-01-12T20:00:43.236Z,91260.47
2023-01-12T20:03:10.711Z,91245.84
2023-01-12T20:05:38.447Z,91207.75
2023-01-12T20:08:05.000Z,91199.91
2023-01-12T20:10:31.404Z,91173.31
2023-01-12T20:12:57.802Z,91167.03
2023-01-12T20:15:24.362Z,91174.34
2023-01-12T20:17:50.819Z,91158.69
2023-01-12T20:20:17.435Z,91153.47
2023-01-12T20:22:43.884Z,91155.56
2023-01-12T20:25:10.313Z,91143.56
2023-01-12T20:27:36.980Z,91116.94
2023-01-12T20:30:04.858Z,91101.28
2023-01-12T20:32:32.449Z,91101.28
2023-01-12T20:35:01.835Z,91080.41
2023-01-12T20:37:28.215Z,91084.31
2023-01-12T20:39:58.014Z,91091.88
2023-01-12T20:42:24.631Z,91077.81
2023-01-12T20:44:51.457Z,91078.06
2023-01-12T20:47:19.236Z,91060.56
2023-01-12T20:49:48.634Z,91045.97
2023-01-12T20:52:14.991Z,91035.53
2023-01-12T20:54:41.524Z,91019.34
2023-01-12T20:57:10.070Z,91003.41
2023-01-12T20:59:37.552Z,91015.69
2023-01-12T21:02:04.330Z,91020.41
2023-01-12T21:04:31.796Z,91011.53
2023-01-12T21:06:58.628Z,90984.66
2023-01-12T21:09:25.151Z,90954.13
2023-01-12T21:11:51.733Z,90911.34
2023-01-12T21:14:19.435Z,90884.72
2023-01-12T21:16:46.586Z,90849.19
2023-01-12T21:19:13.147Z,90830.94
2023-01-12T21:21:39.581Z,90833.53
2023-01-12T21:24:06.196Z,90833.78
2023-01-12T21:26:32.733Z,90845.00
2023-01-12T21:28:59.186Z,90862.78
2023-01-12T21:31:25.617Z,90878.91
2023-01-12T21:33:52.011Z,90896.97
2023-01-12T21:36:19.344Z,90916.50
2023-01-12T21:38:52.425Z,90932.16
2023-01-12T21:41:21.062Z,90961.94
2023-01-12T21:43:48.934Z,90977.59
2023-01-12T21:46:15.543Z,90998.47
2023-01-12T21:48:41.909Z,91015.16
2023-01-12T21:51:13.674Z,91043.56
2023-01-12T21:53:41.866Z,91081.41
2023-01-12T21:56:10.219Z,91103.34
2023-01-12T21:58:36.670Z,91111.19
2023-01-12T22:01:07.907Z,91115.34
2023-01-12T22:03:34.357Z,91144.03
2023-01-12T22:06:04.316Z,91150.84
2023-01-12T22:08:30.901Z,91169.63
2023-01-12T22:10:57.237Z,91185.28
2023-01-12T22:13:23.633Z,91204.59
2023-01-12T22:15:52.139Z,91190.50
2023-01-12T22:18:18.834Z,91029.22
2023-01-12T22:20:45.303Z,90905.28
2023-01-12T22:23:12.487Z,90813.69
2023-01-12T22:25:39.106Z,90753.94
2023-01-12T22:28:05.477Z,90725.03
2023-01-12T22:30:31.896Z,90689.56
2023-01-12T22:32:58.301Z,90642.06
2023-01-12T22:35:26.009Z,90610.28
2023-01-12T22:37:52.442Z,90569.31
2023-01-12T22:40:18.866Z,90526.78
2023-01-12T22:43:03.905Z,90489.72
2023-01-12T22:45:30.277Z,90483.72
2023-01-12T22:47:57.001Z,90494.94
2023-01-12T22:50:24.128Z,90527.78
2023-01-12T22:52:52.563Z,90551.28
2023-01-12T22:55:20.035Z,90570.00
2023-01-12T22:57:46.435Z,90600.06
2023-01-12T23:00:13.554Z,90628.28
2023-01-12T23:03:15.676Z,90647.59
2023-01-12T23:05:56.203Z,90662.47
2023-01-12T23:08:22.856Z,90693.75
2023-01-12T23:10:49.641Z,90705.75
2023-01-12T23:13:17.768Z,90713.56
2023-01-12T23:15:54.284Z,90737.06
2023-01-12T23:18:21.909Z,90759.47
2023-01-12T23:20:49.158Z,90777.25
2023-01-12T23:23:17.855Z,90786.13
2023-01-12T23:25:44.852Z,90796.00
2023-01-12T23:28:11.820Z,90823.94
2023-01-12T23:30:38.337Z,90821.34
2023-01-12T23:33:05.193Z,90836.72
2023-01-12T23:35:39.498Z,90855.00
2023-01-12T23:38:06.822Z,90874.28
2023-01-12T23:40:33.371Z,90888.91
2023-01-12T23:43:00.616Z,90898.56
2023-01-12T23:45:27.262Z,90927.78
2023-01-12T23:47:53.641Z,90941.13
2023-01-12T23:50:20.287Z,90965.09
2023-01-12T23:52:48.887Z,90981.28
2023-01-12T23:55:15.393Z,90976.88
2023-01-12T23:57:42.016Z,90990.19
